createdAt,value
2023-05-13T00:00:29.725Z,5.32
2023-05-13T00:02:57.796Z,5.97
2023-05-13T00:05:25.772Z,5.57
2023-05-13T00:07:53.739Z,6.72
2023-05-13T00:10:21.833Z,6.15
2023-05-13T00:12:51.432Z,6.38
2023-05-13T00:15:19.549Z,5.95
2023-05-13T00:17:47.591Z,5.85
2023-05-13T00:20:15.510Z,6.03
2023-05-13T00:22:43.502Z,6.32
2023-05-13T00:25:11.427Z,6.28
2023-05-13T00:27:39.588Z,5.72
2023-05-13T00:30:10.229Z,6.30
2023-05-13T00:32:38.256Z,5.90
2023-05-13T00:35:07.072Z,6.50
2023-05-13T00:37:35.059Z,5.75
2023-05-13T00:40:03.521Z,6.05
2023-05-13T00:42:31.539Z,6.38
2023-05-13T00:44:59.406Z,6.05
2023-05-13T00:47:28.915Z,7.05
2023-05-13T00:49:56.904Z,6.85
2023-05-13T00:52:24.798Z,6.60
2023-05-13T00:54:52.723Z,7.03
2023-05-13T00:57:21.171Z,6.82
2023-05-13T00:59:49.278Z,6.55
2023-05-13T01:02:25.026Z,6.35
2023-05-13T01:05:14.466Z,6.40
2023-05-13T01:07:50.906Z,6.47
2023-05-13T01:10:25.409Z,6.82
2023-05-13T01:12:57.953Z,6.32
2023-05-13T01:15:27.391Z,6.63
2023-05-13T01:18:01.456Z,6.50
2023-05-13T01:20:32.568Z,6.50
2023-05-13T01:23:04.050Z,6.68
2023-05-13T01:25:32.251Z,7.10
2023-05-13T01:28:01.986Z,6.72
2023-05-13T01:30:31.192Z,6.90
2023-05-13T01:33:00.230Z,6.88
2023-05-13T01:35:29.248Z,6.93
2023-05-13T01:37:59.147Z,6.57
2023-05-13T01:40:32.650Z,6.53
2023-05-13T01:43:05.867Z,6.25
2023-05-13T01:45:34.817Z,5.72
2023-05-13T01:48:02.947Z,6.82
2023-05-13T01:50:40.585Z,7.07
2023-05-13T01:53:09.136Z,6.35
2023-05-13T01:55:40.462Z,6.65
2023-05-13T01:58:08.830Z,7.00
2023-05-13T02:00:36.740Z,6.78
2023-05-13T02:03:04.618Z,6.68
2023-05-13T02:05:33.187Z,7.10
2023-05-13T02:10:33.234Z,5.88
2023-05-13T02:13:03.917Z,6.47
2023-05-13T02:15:32.600Z,6.22
2023-05-13T02:18:00.452Z,6.38
2023-05-13T02:20:28.450Z,6.57
2023-05-13T02:22:56.593Z,5.72
2023-05-13T02:25:24.490Z,6.43
2023-05-13T02:27:52.644Z,6.40
2023-05-13T02:30:26.820Z,6.30
2023-05-13T02:32:54.935Z,6.20
2023-05-13T02:35:24.491Z,6.45
2023-05-13T02:37:52.481Z,6.47
2023-05-13T02:40:20.923Z,6.78
2023-05-13T02:42:49.932Z,6.30
2023-05-13T02:45:24.296Z,6.78
2023-05-13T02:47:56.197Z,6.53
2023-05-13T02:50:24.425Z,6.38
2023-05-13T02:52:52.797Z,6.32
2023-05-13T02:55:20.713Z,6.40
2023-05-13T02:57:48.566Z,6.72
2023-05-13T03:00:17.243Z,6.47
2023-05-13T03:02:46.537Z,6.68
2023-05-13T03:05:14.806Z,6.68
2023-05-13T03:07:43.323Z,6.85
2023-05-13T03:10:11.369Z,6.05
2023-05-13T03:12:39.144Z,6.28
2023-05-13T03:15:08.077Z,6.50
2023-05-13T03:17:36.296Z,6.85
2023-05-13T03:20:06.635Z,7.03
2023-05-13T03:22:34.695Z,6.47
2023-05-13T03:25:02.563Z,6.88
2023-05-13T03:27:36.517Z,7.15
2023-05-13T03:30:05.108Z,7.57
2023-05-13T03:32:33.869Z,7.07
2023-05-13T03:35:02.150Z,6.65
2023-05-13T03:37:32.861Z,7.07
2023-05-13T03:40:01.766Z,7.22
2023-05-13T03:42:30.680Z,7.22
2023-05-13T03:45:01.840Z,7.05
2023-05-13T03:47:29.796Z,7.07
2023-05-13T03:50:01.697Z,6.93
2023-05-13T03:52:37.029Z,7.13
2023-05-13T03:55:05.383Z,6.50
2023-05-13T03:57:34.766Z,6.63
2023-05-13T04:00:03.539Z,7.32
2023-05-13T04:02:42.620Z,6.88
2023-05-13T04:05:13.793Z,7.13
2023-05-13T04:07:43.211Z,6.90
2023-05-13T04:10:14.616Z,6.95
2023-05-13T04:12:43.533Z,7.18
2023-05-13T04:15:12.037Z,7.00
2023-05-13T04:17:39.857Z,6.50
2023-05-13T04:20:09.103Z,7.30
2023-05-13T04:22:36.939Z,6.60
2023-05-13T04:25:07.021Z,6.88
2023-05-13T04:27:35.498Z,6.75
2023-05-13T04:30:10.014Z,7.10
2023-05-13T04:32:39.736Z,6.72
2023-05-13T04:35:08.377Z,6.68
2023-05-13T04:37:36.934Z,6.95
2023-05-13T04:40:09.922Z,7.20
2023-05-13T04:42:38.332Z,7.15
2023-05-13T04:45:07.148Z,6.68
2023-05-13T04:47:35.439Z,7.00
2023-05-13T04:50:03.505Z,7.47
2023-05-13T04:52:33.132Z,7.32
2023-05-13T04:55:00.985Z,6.85
2023-05-13T04:57:31.323Z,6.93
2023-05-13T04:59:59.227Z,6.63
2023-05-13T05:02:29.922Z,6.90
2023-05-13T05:04:58.355Z,7.60
2023-05-13T05:07:26.737Z,7.50
2023-05-13T05:09:54.572Z,7.30
2023-05-13T05:12:22.459Z,7.93
2023-05-13T05:14:51.682Z,7.18
2023-05-13T05:17:19.611Z,7.72
2023-05-13T05:19:47.852Z,7.45
2023-05-13T05:22:15.763Z,7.90
2023-05-13T05:24:43.751Z,7.25
2023-05-13T05:27:11.553Z,7.05
2023-05-13T05:29:39.380Z,7.20
2023-05-13T05:32:09.403Z,6.75
2023-05-13T05:34:37.439Z,7.45
2023-05-13T05:37:05.816Z,7.53
2023-05-13T05:39:35.291Z,6.63
2023-05-13T05:42:03.299Z,7.15
2023-05-13T05:44:31.144Z,6.88
2023-05-13T05:46:59.019Z,6.88
2023-05-13T05:49:28.683Z,6.95
2023-05-13T05:51:57.109Z,6.50
2023-05-13T05:54:26.108Z,6.75
2023-05-13T05:56:54.009Z,6.65
2023-05-13T05:59:22.294Z,6.80
2023-05-13T06:01:51.489Z,7.32
2023-05-13T06:04:19.320Z,6.65
2023-05-13T06:06:48.691Z,7.13
2023-05-13T06:09:17.071Z,6.70
2023-05-13T06:11:44.853Z,6.82
2023-05-13T06:14:12.625Z,6.80
2023-05-13T06:16:40.433Z,6.68
2023-05-13T06:19:08.281Z,6.05
2023-05-13T06:21:37.169Z,6.05
2023-05-13T06:24:06.790Z,6.22
2023-05-13T06:26:34.573Z,6.50
2023-05-13T06:29:02.570Z,6.22
2023-05-13T06:31:30.595Z,5.63
2023-05-13T06:33:58.428Z,6.53
2023-05-13T06:36:26.296Z,5.78
2023-05-13T06:38:54.869Z,6.05
2023-05-13T06:41:25.981Z,5.53
2023-05-13T06:43:57.357Z,6.15
2023-05-13T06:46:29.689Z,5.40
2023-05-13T06:48:58.302Z,5.47
2023-05-13T06:51:27.603Z,5.60
2023-05-13T06:53:55.803Z,5.40
2023-05-13T06:56:25.921Z,5.10
2023-05-13T06:58:53.965Z,5.20
2023-05-13T07:01:21.832Z,5.30
2023-05-13T07:03:49.948Z,5.10
2023-05-13T07:06:17.751Z,5.22
2023-05-13T07:08:45.622Z,4.70
2023-05-13T07:11:13.475Z,4.22
2023-05-13T07:13:42.704Z,4.40
2023-05-13T07:16:10.612Z,5.00
2023-05-13T07:18:38.695Z,4.40
2023-05-13T07:21:06.975Z,4.60
2023-05-13T07:23:35.778Z,4.47
2023-05-13T07:26:04.016Z,4.38
2023-05-13T07:28:31.963Z,4.82
2023-05-13T07:31:01.337Z,4.30
2023-05-13T07:33:29.636Z,4.18
2023-05-13T07:35:57.437Z,4.90
2023-05-13T07:38:25.319Z,4.47
2023-05-13T07:40:53.166Z,4.25
2023-05-13T07:43:23.980Z,4.75
2023-05-13T07:45:52.144Z,4.20
2023-05-13T07:48:21.361Z,3.95
2023-05-13T07:50:49.309Z,4.00
2023-05-13T07:53:19.101Z,3.80
2023-05-13T07:55:47.760Z,3.88
2023-05-13T07:58:15.655Z,3.97
2023-05-13T08:00:43.516Z,4.18
2023-05-13T08:03:12.389Z,4.32
2023-05-13T08:05:41.755Z,4.15
2023-05-13T08:08:09.577Z,3.88
2023-05-13T08:10:37.472Z,4.00
2023-05-13T08:13:05.332Z,3.97
2023-05-13T08:15:33.198Z,3.83
2023-05-13T08:18:01.069Z,4.07
2023-05-13T08:20:30.131Z,4.00
2023-05-13T08:23:01.180Z,4.15
2023-05-13T08:25:29.029Z,4.05
2023-05-13T08:27:56.884Z,3.83
2023-05-13T08:30:24.772Z,3.85
2023-05-13T08:32:52.709Z,4.20
2023-05-13T08:35:21.763Z,3.90
2023-05-13T08:37:49.731Z,4.07
2023-05-13T08:40:19.139Z,4.00
2023-05-13T08:42:50.080Z,3.70
2023-05-13T08:45:22.242Z,3.92
2023-05-13T08:47:56.812Z,3.83
2023-05-13T08:50:26.077Z,3.95
2023-05-13T08:52:54.622Z,3.70
2023-05-13T08:55:24.524Z,3.75
2023-05-13T08:57:53.270Z,3.92
2023-05-13T09:00:21.856Z,3.80
2023-05-13T09:02:50.632Z,3.78
2023-05-13T09:05:20.321Z,3.22
2023-05-13T09:07:48.660Z,3.20
2023-05-13T09:10:18.620Z,4.03
2023-05-13T09:12:49.928Z,3.70
2023-05-13T09:15:20.333Z,3.65
2023-05-13T09:17:52.452Z,3.67
2023-05-13T09:20:21.582Z,3.92
2023-05-13T09:22:51.041Z,3.80
2023-05-13T09:25:20.846Z,4.10
2023-05-13T09:27:52.704Z,4.10
2023-05-13T09:30:21.830Z,4.15
2023-05-13T09:33:08.100Z,3.80
2023-05-13T09:35:37.148Z,4.00
2023-05-13T09:38:14.418Z,3.90
2023-05-13T09:40:42.728Z,3.92
2023-05-13T09:43:12.137Z,3.95
2023-05-13T09:45:40.109Z,3.47
2023-05-13T09:48:09.616Z,3.97
2023-05-13T09:50:48.027Z,3.95
2023-05-13T09:53:16.042Z,3.75
2023-05-13T09:55:47.331Z,3.53
2023-05-13T09:58:17.020Z,3.83
2023-05-13T10:00:45.572Z,3.50
2023-05-13T10:03:14.114Z,3.58
2023-05-13T10:05:43.067Z,3.70
2023-05-13T10:08:13.047Z,3.47
2023-05-13T10:10:45.777Z,3.45
2023-05-13T10:13:19.575Z,3.90
2023-05-13T10:15:51.320Z,3.45
2023-05-13T10:18:20.410Z,3.72
2023-05-13T10:20:53.097Z,3.70
2023-05-13T10:23:22.442Z,4.00
2023-05-13T10:25:51.910Z,3.92
2023-05-13T10:28:21.493Z,4.03
2023-05-13T10:30:51.127Z,3.83
2023-05-13T10:33:19.491Z,3.53
2023-05-13T10:35:57.964Z,4.40
2023-05-13T10:38:39.021Z,4.03
2023-05-13T10:41:12.970Z,4.07
2023-05-13T10:43:42.628Z,3.97
2023-05-13T10:46:13.782Z,4.28
2023-05-13T10:48:43.274Z,4.00
2023-05-13T10:51:15.448Z,4.43
2023-05-13T10:53:49.334Z,4.13
2023-05-13T10:56:20.718Z,4.00
2023-05-13T10:59:00.439Z,3.85
2023-05-13T11:01:30.070Z,3.50
2023-05-13T11:04:00.118Z,3.55
2023-05-13T11:06:33.022Z,3.33
2023-05-13T11:09:01.095Z,3.63
2023-05-13T11:11:33.184Z,3.88
2023-05-13T11:16:37.317Z,3.60
2023-05-13T11:19:10.550Z,3.92
2023-05-13T11:21:41.155Z,3.92
2023-05-13T11:24:09.473Z,3.55
2023-05-13T11:26:47.961Z,3.70
2023-05-13T11:29:28.982Z,4.03
2023-05-13T11:32:00.240Z,4.00
2023-05-13T11:34:29.236Z,3.88
2023-05-13T11:37:08.414Z,3.70
2023-05-13T11:39:36.616Z,3.55
2023-05-13T11:42:08.290Z,3.58
2023-05-13T11:44:45.259Z,3.80
2023-05-13T11:47:13.280Z,3.33
2023-05-13T11:49:42.571Z,4.03
2023-05-13T11:52:11.824Z,3.60
2023-05-13T11:54:44.633Z,3.63
2023-05-13T11:57:19.604Z,3.80
2023-05-13T11:59:53.192Z,3.80
2023-05-13T12:02:22.994Z,3.60
2023-05-13T12:04:52.581Z,3.55
2023-05-13T12:07:22.593Z,3.72
2023-05-13T12:09:50.785Z,4.15
2023-05-13T12:12:19.829Z,3.80
2023-05-13T12:14:50.243Z,3.70
2023-05-13T12:17:20.370Z,3.72
2023-05-13T12:20:15.665Z,3.35
2023-05-13T12:22:54.775Z,3.60
2023-05-13T12:25:42.376Z,3.22
2023-05-13T12:28:13.086Z,3.22
2023-05-13T12:30:42.965Z,3.20
2023-05-13T12:33:16.585Z,3.08
2023-05-13T12:35:44.671Z,3.35
2023-05-13T12:38:18.056Z,3.42
2023-05-13T12:40:46.819Z,3.80
2023-05-13T12:43:15.376Z,3.40
2023-05-13T12:45:45.164Z,3.30
2023-05-13T12:48:15.405Z,3.10
2023-05-13T12:50:43.267Z,2.85
2023-05-13T12:53:11.091Z,2.80
2023-05-13T12:55:40.236Z,2.72
2023-05-13T12:58:10.983Z,2.95
2023-05-13T13:00:39.083Z,2.97
2023-05-13T13:03:08.098Z,2.78
2023-05-13T13:05:37.822Z,2.50
2023-05-13T13:08:06.274Z,2.65
2023-05-13T13:10:34.806Z,2.40
2023-05-13T13:13:02.696Z,2.50
2023-05-13T13:15:30.741Z,2.65
2023-05-13T13:17:58.721Z,2.40
2023-05-13T13:20:26.612Z,2.58
2023-05-13T13:22:55.848Z,2.30
2023-05-13T13:25:24.058Z,2.78
2023-05-13T13:27:52.112Z,2.50
2023-05-13T13:30:19.956Z,2.35
2023-05-13T13:32:47.777Z,2.60
2023-05-13T13:35:15.796Z,2.50
2023-05-13T13:37:43.608Z,2.33
2023-05-13T13:40:14.258Z,2.42
2023-05-13T13:42:44.463Z,2.80
2023-05-13T13:45:13.510Z,2.47
2023-05-13T13:47:41.709Z,2.65
2023-05-13T13:50:11.134Z,2.40
2023-05-13T13:52:38.951Z,2.45
2023-05-13T13:55:07.917Z,2.65
2023-05-13T13:57:37.063Z,2.28
2023-05-13T14:00:05.994Z,2.22
2023-05-13T14:02:34.050Z,2.85
2023-05-13T14:05:01.949Z,3.10
2023-05-13T14:07:29.825Z,3.00
2023-05-13T14:10:00.272Z,3.10
2023-05-13T14:12:28.934Z,3.30
2023-05-13T14:14:58.139Z,2.90
2023-05-13T14:17:26.215Z,2.67
2023-05-13T14:19:55.461Z,2.50
2023-05-13T14:22:23.815Z,2.55
2023-05-13T14:24:52.925Z,2.70
2023-05-13T14:27:21.550Z,2.63
2023-05-13T14:29:49.873Z,2.83
2023-05-13T14:32:19.199Z,2.67
2023-05-13T14:34:47.052Z,2.80
2023-05-13T14:37:14.978Z,2.45
2023-05-13T14:39:42.766Z,2.70
2023-05-13T14:42:11.567Z,2.67
2023-05-13T14:44:41.445Z,2.53
2023-05-13T14:47:09.745Z,2.63
2023-05-13T14:49:38.998Z,2.40
2023-05-13T14:52:06.938Z,2.50
2023-05-13T14:54:37.829Z,2.70
2023-05-13T14:57:07.449Z,2.67
2023-05-13T14:59:35.558Z,2.30
2023-05-13T15:02:04.100Z,2.70
2023-05-13T15:04:31.981Z,2.50
2023-05-13T15:07:03.397Z,2.90
2023-05-13T15:09:31.347Z,2.45
2023-05-13T15:11:59.129Z,2.67
2023-05-13T15:14:27.102Z,2.72
2023-05-13T15:16:54.958Z,3.00
2023-05-13T15:19:22.829Z,2.97
2023-05-13T15:21:50.842Z,3.17
2023-05-13T15:24:20.095Z,3.13
2023-05-13T15:26:49.638Z,4.40
2023-05-13T15:29:17.567Z,3.00
2023-05-13T15:31:45.536Z,2.80
2023-05-13T15:34:13.370Z,3.30
2023-05-13T15:36:41.177Z,3.20
2023-05-13T15:39:10.935Z,3.10
2023-05-13T15:41:40.402Z,3.20
2023-05-13T15:44:08.212Z,3.30
2023-05-13T15:46:36.234Z,3.13
2023-05-13T15:49:04.224Z,3.28
2023-05-13T15:51:32.055Z,2.90
2023-05-13T15:54:00.603Z,3.20
2023-05-13T15:56:28.442Z,2.97
2023-05-13T15:58:57.562Z,3.22
2023-05-13T16:01:25.402Z,3.10
2023-05-13T16:03:53.265Z,3.40
2023-05-13T16:06:21.150Z,3.55
2023-05-13T16:08:49.388Z,3.10
2023-05-13T16:11:17.177Z,3.05
2023-05-13T16:13:44.985Z,2.97
2023-05-13T16:16:14.242Z,3.00
2023-05-13T16:18:43.195Z,3.33
2023-05-13T16:21:11.027Z,2.80
2023-05-13T16:23:38.899Z,2.75
2023-05-13T16:26:06.805Z,2.83
2023-05-13T16:28:34.658Z,3.10
2023-05-13T16:31:02.658Z,3.45
2023-05-13T16:33:32.910Z,3.45
2023-05-13T16:36:01.147Z,3.58
2023-05-13T16:38:30.498Z,4.03
2023-05-13T16:40:58.416Z,3.65
2023-05-13T16:43:26.202Z,4.57
2023-05-13T16:45:54.186Z,5.40
2023-05-13T16:48:22.086Z,4.50
2023-05-13T16:50:51.968Z,4.10
2023-05-13T16:53:22.232Z,4.80
2023-05-13T16:55:50.597Z,4.20
2023-05-13T16:58:18.505Z,4.38
2023-05-13T17:00:46.475Z,3.88
2023-05-13T17:03:14.482Z,4.88
2023-05-13T17:05:42.407Z,6.07
2023-05-13T17:08:11.647Z,5.88
2023-05-13T17:10:39.429Z,4.60
2023-05-13T17:13:07.326Z,3.95
2023-05-13T17:15:35.366Z,3.80
2023-05-13T17:18:03.252Z,3.65
2023-05-13T17:20:31.236Z,3.55
2023-05-13T17:22:59.392Z,3.72
2023-05-13T17:25:28.635Z,3.80
2023-05-13T17:27:56.474Z,3.25
2023-05-13T17:30:24.483Z,3.78
2023-05-13T17:32:52.412Z,3.83
2023-05-13T17:35:20.289Z,3.53
2023-05-13T17:37:48.087Z,3.50
2023-05-13T17:40:15.988Z,3.42
2023-05-13T17:42:45.255Z,3.25
2023-05-13T17:45:13.311Z,3.53
2023-05-13T17:47:41.353Z,3.50
2023-05-13T17:50:10.086Z,3.80
2023-05-13T17:52:37.932Z,3.63
2023-05-13T17:55:07.066Z,3.58
2023-05-13T17:57:34.897Z,3.25
2023-05-13T18:00:06.793Z,3.17
2023-05-13T18:02:36.197Z,3.03
2023-05-13T18:05:04.264Z,3.22
2023-05-13T18:07:32.204Z,3.30
2023-05-13T18:10:00.115Z,4.80
2023-05-13T18:12:28.032Z,5.07
2023-05-13T18:14:55.896Z,4.68
2023-05-13T18:17:25.435Z,4.57
2023-05-13T18:19:53.302Z,4.05
2023-05-13T18:22:21.182Z,3.60
2023-05-13T18:24:48.946Z,3.53
2023-05-13T18:27:16.869Z,3.30
2023-05-13T18:29:44.748Z,3.63
2023-05-13T18:32:12.555Z,3.60
2023-05-13T18:34:41.752Z,3.70
2023-05-13T18:37:09.600Z,3.92
2023-05-13T18:39:37.407Z,3.72
2023-05-13T18:42:05.725Z,3.30
2023-05-13T18:44:33.813Z,3.70
2023-05-13T18:47:01.791Z,4.00
2023-05-13T18:49:29.601Z,3.70
2023-05-13T18:51:58.932Z,3.97
2023-05-13T18:54:29.063Z,4.07
2023-05-13T18:56:57.172Z,4.15
2023-05-13T18:59:25.018Z,4.60
2023-05-13T19:01:52.984Z,4.60
2023-05-13T19:04:21.386Z,4.60
2023-05-13T19:06:49.340Z,4.28
2023-05-13T19:09:18.715Z,4.55
2023-05-13T19:11:46.526Z,4.95
2023-05-13T19:14:14.389Z,6.00
2023-05-13T19:16:42.244Z,5.75
2023-05-13T19:19:10.266Z,5.78
2023-05-13T19:21:38.143Z,4.85
2023-05-13T19:24:06.260Z,4.85
2023-05-13T19:26:36.051Z,5.25
2023-05-13T19:29:04.012Z,4.28
2023-05-13T19:31:32.390Z,4.80
2023-05-13T19:34:01.436Z,5.20
2023-05-13T19:36:29.558Z,4.10
2023-05-13T19:38:57.623Z,4.47
2023-05-13T19:41:26.146Z,5.00
2023-05-13T19:43:55.391Z,4.97
2023-05-13T19:46:23.418Z,4.45
2023-05-13T19:48:51.340Z,4.22
2023-05-13T19:51:19.283Z,4.25
2023-05-13T19:53:47.253Z,4.45
2023-05-13T19:56:15.126Z,4.63
2023-05-13T19:58:43.246Z,4.30
2023-05-13T20:01:14.778Z,4.18
2023-05-13T20:03:42.921Z,4.22
2023-05-13T20:06:11.067Z,4.38
2023-05-13T20:08:39.679Z,4.60
2023-05-13T20:11:07.582Z,4.28
2023-05-13T20:13:35.805Z,4.35
2023-05-13T20:16:03.862Z,4.90
2023-05-13T20:18:33.333Z,4.70
2023-05-13T20:21:01.923Z,4.30
2023-05-13T20:23:29.721Z,4.80
2023-05-13T20:25:58.216Z,4.82
2023-05-13T20:28:26.326Z,5.15
2023-05-13T20:30:54.379Z,4.93
2023-05-13T20:33:22.322Z,5.38
2023-05-13T20:35:51.575Z,5.05
2023-05-13T20:38:19.547Z,4.57
2023-05-13T20:40:47.967Z,5.38
2023-05-13T20:43:16.811Z,5.03
2023-05-13T20:45:44.844Z,5.90
2023-05-13T20:48:13.771Z,5.80
2023-05-13T20:50:41.923Z,5.60
2023-05-13T20:53:11.239Z,5.35
2023-05-13T20:55:39.268Z,5.75
2023-05-13T20:58:07.165Z,5.47
2023-05-13T21:00:35.079Z,5.70
2023-05-13T21:03:03.306Z,5.85
2023-05-13T21:05:32.181Z,5.57
2023-05-13T21:08:00.152Z,5.38
2023-05-13T21:10:29.483Z,5.30
2023-05-13T21:12:57.378Z,5.90
2023-05-13T21:15:25.387Z,5.97
2023-05-13T21:17:53.293Z,5.85
2023-05-13T21:20:21.757Z,5.78
2023-05-13T21:22:49.914Z,5.85
2023-05-13T21:25:17.912Z,5.15
2023-05-13T21:27:47.252Z,5.65
2023-05-13T21:30:15.772Z,5.30
2023-05-13T21:32:43.674Z,5.25
2023-05-13T21:35:11.631Z,5.22
2023-05-13T21:37:39.508Z,6.30
2023-05-13T21:40:08.998Z,5.32
2023-05-13T21:42:36.995Z,5.10
2023-05-13T21:45:07.309Z,5.20
2023-05-13T21:47:35.270Z,5.45
2023-05-13T21:50:03.262Z,5.03
2023-05-13T21:52:31.229Z,5.28
2023-05-13T21:54:59.039Z,5.55
2023-05-13T21:57:27.082Z,5.88
2023-05-13T21:59:55.017Z,5.72
2023-05-13T22:02:24.298Z,6.20
2023-05-13T22:04:52.219Z,5.93
2023-05-13T22:07:20.119Z,6.55
2023-05-13T22:09:49.745Z,6.63
2023-05-13T22:12:18.521Z,6.03
2023-05-13T22:14:46.477Z,6.30
2023-05-13T22:17:14.621Z,5.80
2023-05-13T22:19:43.991Z,5.10
2023-05-13T22:22:11.968Z,5.50
2023-05-13T22:24:39.795Z,5.95
2023-05-13T22:27:07.872Z,5.72
2023-05-13T22:29:35.824Z,5.85
2023-05-13T22:32:03.896Z,5.63
2023-05-13T22:34:31.965Z,6.28
2023-05-13T22:37:02.555Z,5.80
2023-05-13T22:39:30.619Z,5.88
2023-05-13T22:41:58.523Z,5.78
2023-05-13T22:44:26.371Z,6.07
2023-05-13T22:46:54.270Z,6.60
2023-05-13T22:49:22.210Z,6.47
2023-05-13T22:51:50.154Z,6.75
2023-05-13T22:54:19.402Z,6.80
2023-05-13T22:56:47.284Z,7.07
2023-05-13T22:59:15.089Z,5.93
2023-05-13T23:01:42.961Z,6.72
2023-05-13T23:04:11.015Z,6.57
2023-05-13T23:06:38.959Z,6.32
2023-05-13T23:09:07.677Z,6.97
2023-05-13T23:11:37.510Z,6.57
2023-05-13T23:14:05.394Z,7.25
2023-05-13T23:16:33.406Z,7.05
2023-05-13T23:19:02.216Z,7.28
2023-05-13T23:21:30.148Z,6.85
2023-05-13T23:23:58.412Z,7.00
2023-05-13T23:26:26.318Z,6.50
2023-05-13T23:28:55.520Z,6.28
2023-05-13T23:31:23.390Z,6.20
2023-05-13T23:33:51.256Z,6.05
2023-05-13T23:36:19.115Z,5.90
2023-05-13T23:38:47.056Z,6.07
2023-05-13T23:41:14.892Z,6.13
2023-05-13T23:43:42.716Z,6.28
2023-05-13T23:46:12.007Z,6.47
2023-05-13T23:48:40.291Z,6.22
2023-05-13T23:51:08.170Z,6.38
2023-05-13T23:53:36.054Z,7.10
2023-05-13T23:56:03.978Z,7.45
2023-05-13T23:58:31.835Z,7.50
